Archiv-/Tagesdaten

--Timestamp---	Temp	Chill	HIndex	Humid	Dewpt	 Wind 	HiWind	WindDir	Rain 	Barom	Solar	 ET  	 UV 
--------------	----	-----	------	-----	-----	------	------	-------	-----	-----	-----	-----	----
20091224 00:00	0.6	-2.0	0.6	91	-0.7	8	14	112	0.0	997.9	0	0.000	0.0
20091224 00:05	0.6	-2.5	0.6	91	-0.7	10	14	112	0.0	997.9	0	0.000	0.0
20091224 00:10	0.6	0.6	0.6	91	-0.7	5	10	135	0.0	997.9	0	0.000	0.0
20091224 00:15	0.6	0.6	0.6	91	-0.7	3	8	135	0.0	997.9	0	0.000	0.0
20091224 00:20	0.6	0.6	0.6	91	-0.7	2	5	135	0.0	997.7	0	0.000	0.0
20091224 00:25	0.6	0.6	0.6	91	-0.7	2	6	135	0.0	997.7	0	0.000	0.0
20091224 00:30	0.6	0.6	0.6	91	-0.7	0	5	135	0.0	916.4	0	0.000	0.0
20091224 00:35	0.6	0.6	0.6	91	-0.7	3	6	135	0.0	997.6	0	0.000	0.0
20091224 00:40	0.6	0.6	0.6	90	-0.9	2	5	135	0.0	997.4	0	0.000	0.0
20091224 00:45	0.6	0.6	0.6	90	-0.9	3	6	135	0.0	997.4	0	0.000	0.0
20091224 00:50	0.6	0.6	0.6	90	-0.9	3	8	135	0.0	997.4	0	0.000	0.0
20091224 00:55	0.5	0.5	0.5	90	-0.9	3	8	135	0.0	997.3	0	0.000	0.0
20091224 01:00	0.5	-1.6	0.5	90	-0.9	6	10	135	0.0	997.1	0	0.000	0.0
20091224 01:05	0.5	-2.1	0.5	90	-0.9	8	14	112	0.0	996.6	0	0.000	0.0
20091224 01:10	0.5	-2.1	0.5	90	-0.9	8	16	112	0.0	996.7	0	0.000	0.0
20091224 01:15	0.5	-2.1	0.5	90	-0.9	8	19	112	0.0	996.3	0	0.000	0.0
20091224 01:20	0.5	-1.6	0.5	90	-0.9	6	11	135	0.0	996.4	0	0.000	0.0
20091224 01:25	0.6	0.6	0.6	90	-0.9	5	8	135	0.0	996.6	0	0.000	0.0
20091224 01:30	0.6	-1.5	0.6	90	-0.9	6	11	135	0.0	996.4	0	0.000	0.0
20091224 01:35	0.6	-1.5	0.6	90	-0.9	6	11	135	0.0	996.5	0	0.000	0.0
20091224 01:40	0.6	0.6	0.6	90	-0.9	3	8	112	0.0	996.3	0	0.000	0.0
20091224 01:45	0.5	0.5	0.5	90	-0.9	2	6	90	0.0	996.4	0	0.000	0.0
20091224 01:50	0.5	0.5	0.5	90	-0.9	0	5	90	0.0	996.8	0	0.000	0.0
20091224 01:55	0.5	0.5	0.5	90	-0.9	0	3	90	0.0	996.5	0	0.000	0.0
20091224 02:00	0.5	0.5	0.5	90	-0.9	3	8	68	0.0	996.5	0	0.000	0.0
20091224 02:05	0.6	0.6	0.6	90	-0.9	0	0	-100000	0.0	996.8	0	0.000	0.0
20091224 02:10	0.6	0.6	0.6	90	-0.9	2	5	68	0.0	996.5	0	0.000	0.0
20091224 02:15	0.6	0.6	0.6	90	-0.9	5	8	202	0.0	996.2	0	0.000	0.0
20091224 02:20	0.6	0.6	0.6	90	-0.9	3	8	292	0.0	996.6	0	0.000	0.0
20091224 02:25	0.6	-2.5	0.6	90	-0.9	10	18	112	0.0	996.1	0	0.000	0.0
20091224 02:30	0.6	0.6	0.6	90	-0.9	5	14	135	0.0	996.5	0	0.000	0.0
20091224 02:35	0.6	0.6	0.6	91	-0.7	5	11	90	0.0	996.3	0	0.000	0.0
20091224 02:40	0.6	0.6	0.6	91	-0.7	3	10	225	0.0	997.1	0	0.000	0.0
20091224 02:45	0.6	0.6	0.6	91	-0.7	3	8	90	0.0	996.6	0	0.000	0.0
20091224 02:50	0.6	0.6	0.6	91	-0.7	2	6	135	0.0	997.2	0	0.000	0.0
20091224 02:55	0.6	0.6	0.6	91	-0.7	2	5	135	0.0	996.9	0	0.000	0.0
20091224 03:00	0.6	0.6	0.6	91	-0.7	0	2	135	0.0	997.0	0	0.000	0.0
20091224 03:05	0.6	0.6	0.6	91	-0.7	0	3	135	0.0	997.3	0	0.000	0.0
20091224 03:10	0.7	0.7	0.7	91	-0.6	2	6	248	0.0	997.5	0	0.000	0.0
20091224 03:15	0.7	0.7	0.7	91	-0.6	0	3	248	0.0	997.4	0	0.000	0.0
20091224 03:20	0.7	0.7	0.7	91	-0.6	2	8	248	0.0	997.2	0	0.000	0.0
20091224 03:25	0.6	0.6	0.6	91	-0.7	3	6	248	0.0	997.2	0	0.000	0.0
20091224 03:30	0.6	0.6	0.6	91	-0.7	2	5	248	0.0	997.6	0	0.000	0.0
20091224 03:35	0.6	0.6	0.6	91	-0.7	0	5	248	0.0	997.6	0	0.000	0.0
20091224 03:40	0.5	0.5	0.5	91	-0.8	3	8	248	0.0	997.5	0	0.000	0.0
20091224 03:45	0.4	0.4	0.4	91	-0.9	2	5	248	0.0	997.5	0	0.000	0.0
20091224 03:50	0.4	0.4	0.4	91	-0.9	0	3	248	0.0	997.8	0	0.000	0.0
20091224 03:55	0.4	0.4	0.4	91	-0.9	2	5	248	0.0	997.8	0	0.000	0.0
20091224 04:00	0.4	0.4	0.4	91	-0.9	0	0	-100000	0.0	997.8	0	0.000	0.0
20091224 04:05	0.4	0.4	0.4	91	-0.9	0	3	248	0.0	997.8	0	0.000	0.0
20091224 04:10	0.4	0.4	0.4	91	-0.9	2	5	248	0.0	997.6	0	0.000	0.0
20091224 04:15	0.3	0.3	0.3	91	-1.0	5	10	45	0.0	997.2	0	0.000	0.0
20091224 04:20	0.2	-1.9	0.2	91	-1.1	6	10	45	0.0	996.8	0	0.000	0.0
20091224 04:25	0.2	0.2	0.2	91	-1.1	3	10	45	0.0	996.8	0	0.000	0.0
20091224 04:30	0.1	-2.1	0.1	91	-1.2	6	10	45	0.0	996.8	0	0.000	0.0
20091224 04:35	0.1	0.1	0.1	92	-1.0	2	5	45	0.0	997.1	0	0.000	0.0
20091224 04:40	0.1	0.1	0.1	92	-1.0	3	6	68	0.0	996.5	0	0.000	0.0
20091224 04:45	0.1	0.1	0.1	92	-1.0	3	10	135	0.0	996.7	0	0.000	0.0
20091224 04:50	0.2	0.2	0.2	92	-1.0	5	11	68	0.0	996.9	0	0.000	0.0
20091224 04:55	0.2	0.2	0.2	92	-1.0	2	5	68	0.0	996.9	0	0.000	0.0
20091224 05:00	0.2	0.2	0.2	92	-1.0	2	5	68	0.0	996.5	0	0.000	0.0
20091224 05:05	0.2	0.2	0.2	92	-1.0	3	6	68	0.0	996.4	0	0.000	0.0
20091224 05:10	0.2	0.2	0.2	92	-1.0	3	6	90	0.0	996.8	0	0.000	0.0
20091224 05:15	0.2	0.2	0.2	92	-1.0	0	0	-100000	0.0	996.7	0	0.000	0.0
20091224 05:20	0.2	0.2	0.2	92	-1.0	5	8	158	0.0	996.6	0	0.000	0.0
20091224 05:25	0.1	0.1	0.1	92	-1.0	5	8	158	0.0	996.4	0	0.000	0.0
20091224 05:30	0.1	-2.1	0.1	92	-1.1	6	11	158	0.0	996.4	0	0.000	0.0
20091224 05:35	0.1	-2.1	0.1	92	-1.1	6	14	158	0.0	996.6	0	0.000	0.0
20091224 05:40	0.1	-2.1	0.1	92	-1.1	6	14	135	0.0	996.7	0	0.000	0.0
20091224 05:45	0.1	0.1	0.1	92	-1.1	3	10	112	0.0	996.7	0	0.000	0.0
20091224 05:50	0.1	0.1	0.1	92	-1.0	5	11	135	0.0	996.6	0	0.000	0.0
20091224 05:55	0.1	0.1	0.1	92	-1.0	5	8	135	0.0	996.8	0	0.000	0.0
20091224 06:00	0.1	0.1	0.1	92	-1.1	5	11	158	0.0	996.8	0	0.000	0.0
20091224 06:05	0.1	0.1	0.1	92	-1.0	3	8	180	0.0	996.9	0	0.000	0.0
20091224 06:10	0.1	0.1	0.1	92	-1.0	3	6	180	0.0	996.9	0	0.000	0.0
20091224 06:15	0.1	0.1	0.1	93	-0.9	5	11	180	0.0	996.8	0	0.000	0.0
20091224 06:20	0.1	0.1	0.1	93	-0.9	5	11	135	0.0	997.0	0	0.000	0.0
20091224 06:25	0.1	0.1	0.1	93	-0.9	2	5	135	0.0	996.9	0	0.000	0.0
20091224 06:30	0.2	0.2	0.2	93	-0.8	2	3	135	0.0	997.0	0	0.000	0.0
20091224 06:35	0.1	0.1	0.1	93	-0.9	3	8	135	0.0	997.0	0	0.000	0.0
20091224 06:40	0.1	0.1	0.1	93	-0.9	2	6	135	0.0	996.9	0	0.000	0.0
20091224 06:45	0.1	0.1	0.1	93	-0.9	2	5	135	0.0	997.0	0	0.000	0.0
20091224 06:50	0.1	0.1	0.1	93	-0.9	2	5	135	0.0	996.9	0	0.000	0.0
20091224 06:55	0.1	0.1	0.1	93	-0.9	2	5	135	0.0	997.0	0	0.000	0.0
20091224 07:00	0.1	0.1	0.1	93	-0.9	3	5	135	0.0	996.9	0	0.000	0.0
20091224 07:05	-0.1	-0.1	-0.1	93	-1.0	3	5	135	0.0	996.8	0	0.000	0.0
20091224 07:10	-0.1	-0.1	-0.1	92	-1.3	3	6	135	0.0	996.5	0	0.000	0.0
20091224 07:15	-0.2	-0.2	-0.2	93	-1.2	2	6	135	0.0	996.8	0	0.000	0.0
20091224 07:20	-0.2	-0.2	-0.2	93	-1.2	2	6	135	0.0	996.9	0	0.000	0.0
20091224 07:25	-0.2	-0.2	-0.2	93	-1.2	2	6	135	0.0	996.8	0	0.000	0.0
20091224 07:30	-0.2	-0.2	-0.2	93	-1.2	2	5	135	0.0	996.9	0	0.000	0.0
20091224 07:35	-0.2	-0.2	-0.2	93	-1.2	0	0	-100000	0.0	996.9	0	0.000	0.0
20091224 07:40	-0.2	-0.2	-0.2	93	-1.2	0	3	135	0.0	996.8	0	0.000	0.0
20091224 07:45	-0.2	-0.2	-0.2	93	-1.2	0	3	135	0.0	996.8	0	0.000	0.0
20091224 07:50	-0.2	-0.2	-0.2	93	-1.2	2	5	135	0.0	996.9	0	0.000	0.0
20091224 07:55	-0.2	-0.2	-0.2	93	-1.2	2	5	135	0.0	996.8	0	0.000	0.0
20091224 08:00	-0.2	-0.2	-0.2	93	-1.2	2	5	135	0.0	996.7	0	0.000	0.0
20091224 08:05	-0.3	-0.3	-0.3	93	-1.3	2	5	135	0.0	996.5	4	0.000	0.0
20091224 08:10	-0.3	-0.3	-0.3	93	-1.3	3	8	135	0.0	996.5	5	0.000	0.0
20091224 08:15	-0.3	-0.3	-0.3	93	-1.3	3	8	158	0.0	996.4	8	0.000	0.0
20091224 08:20	-0.3	-0.3	-0.3	93	-1.3	2	6	158	0.0	996.4	9	0.000	0.0
20091224 08:25	-0.4	-0.4	-0.4	93	-1.4	3	6	158	0.0	996.3	11	0.000	0.0
20091224 08:30	-0.4	-0.4	-0.4	93	-1.4	3	6	158	0.0	996.4	14	0.000	0.0
20091224 08:35	-0.4	-0.4	-0.4	93	-1.4	3	6	158	0.0	996.3	19	0.000	0.0
20091224 08:40	-0.4	-0.4	-0.4	93	-1.4	2	6	158	0.0	996.1	20	0.000	0.0
20091224 08:45	-0.5	-0.5	-0.5	93	-1.5	3	8	158	0.0	996.1	24	0.000	0.0
20091224 08:50	-0.5	-0.5	-0.5	93	-1.5	2	6	158	0.0	996.1	24	0.000	0.0
20091224 08:55	-0.5	-0.5	-0.5	93	-1.5	5	10	158	0.0	996.0	26	0.000	0.0
20091224 09:00	-0.5	-0.5	-0.5	93	-1.5	0	5	135	0.0	995.9	28	0.000	0.0
20091224 09:05	-0.5	-0.5	-0.5	93	-1.5	0	0	-100000	0.0	995.9	32	0.000	0.0
20091224 09:10	-0.5	-0.5	-0.5	94	-1.3	0	3	135	0.0	996.0	35	0.000	0.0
20091224 09:15	-0.4	-0.4	-0.4	94	-1.3	2	5	135	0.0	996.1	37	0.000	0.0
20091224 09:20	-0.4	-0.4	-0.4	94	-1.3	0	3	135	0.0	996.0	40	0.000	0.0
20091224 09:25	-0.5	-0.5	-0.5	93	-1.5	0	0	-100000	0.0	996.1	40	0.000	0.0
20091224 09:30	-0.5	-0.5	-0.5	93	-1.5	0	2	135	0.0	996.1	41	0.000	0.0
20091224 09:35	-0.4	-0.4	-0.4	94	-1.3	0	0	-100000	0.0	996.1	45	0.000	0.0
20091224 09:40	-0.4	-0.4	-0.4	94	-1.3	0	0	-100000	0.0	996.1	48	0.000	0.0
20091224 09:45	-0.4	-0.4	-0.4	94	-1.3	0	0	-100000	0.0	996.1	46	0.000	0.0
20091224 09:50	-0.4	-0.4	-0.4	94	-1.3	2	5	135	0.0	996.3	46	0.000	0.0
20091224 09:55	-0.4	-0.4	-0.4	94	-1.3	0	2	135	0.0	996.5	50	0.000	0.0
20091224 10:00	-0.4	-0.4	-0.4	94	-1.2	0	3	135	0.0	996.7	52	0.025	0.0
20091224 10:05	-0.3	-0.3	-0.3	94	-1.2	0	3	135	0.0	996.8	55	0.000	0.0
20091224 10:10	-0.3	-0.3	-0.3	94	-1.2	3	8	248	0.0	996.9	52	0.000	0.0
20091224 10:15	-0.3	-0.3	-0.3	94	-1.1	3	6	248	0.0	996.9	52	0.000	0.0
20091224 10:20	-0.3	-0.3	-0.3	94	-1.1	2	5	248	0.0	996.8	52	0.000	0.0
20091224 10:25	-0.3	-0.3	-0.3	94	-1.1	5	8	248	0.0	997.0	47	0.000	0.0
20091224 10:30	-0.2	-0.2	-0.2	94	-1.1	3	6	248	0.0	996.6	46	0.000	0.0
20091224 10:35	-0.2	-0.2	-0.2	94	-1.1	3	5	248	0.0	996.7	45	0.000	0.0
20091224 10:40	-0.2	-0.2	-0.2	94	-1.1	2	5	248	0.0	996.7	46	0.000	0.0
20091224 10:45	-0.2	-0.2	-0.2	94	-1.1	2	5	248	0.0	996.5	43	0.000	0.0
20091224 10:50	-0.2	-0.2	-0.2	94	-1.1	2	5	248	0.0	996.5	38	0.000	0.0
20091224 10:55	-0.3	-2.5	-0.3	94	-1.1	6	10	45	0.0	996.1	40	0.000	0.0
20091224 11:00	-0.3	-0.3	-0.3	94	-1.2	3	6	315	0.0	996.4	38	0.025	0.0
20091224 11:05	-0.4	-2.6	-0.4	94	-1.2	6	11	68	0.0	995.8	43	0.000	0.0
20091224 11:10	-0.4	-0.4	-0.4	94	-1.3	2	8	68	0.0	995.9	50	0.000	0.0
20091224 11:15	-0.4	-0.4	-0.4	94	-1.2	2	8	22	0.0	996.0	66	0.000	0.0
20091224 11:20	-0.4	-0.4	-0.4	94	-1.2	3	6	68	0.0	996.0	87	0.000	0.0
20091224 11:25	-0.3	-0.3	-0.3	94	-1.2	3	6	68	0.0	995.8	104	0.000	0.0
20091224 11:30	-0.4	-0.4	-0.4	94	-1.2	2	3	68	0.0	995.9	143	0.000	0.4
20091224 11:35	-0.3	-0.3	-0.3	94	-1.2	2	5	68	0.0	996.0	193	0.000	0.6
20091224 11:40	-0.2	-0.2	-0.2	94	-1.0	2	6	68	0.0	996.0	154	0.000	0.6
20091224 11:45	-0.1	-0.1	-0.1	94	-1.0	3	6	68	0.0	995.5	117	0.000	0.5
20091224 11:50	-0.1	-0.1	-0.1	94	-0.9	5	10	68	0.0	995.4	171	0.000	0.6
20091224 11:55	0.0	0.0	0.0	94	-0.8	5	10	45	0.0	995.4	192	0.000	0.6
20091224 12:00	0.1	0.1	0.1	94	-0.8	3	6	45	0.0	995.2	181	0.051	0.7
20091224 12:05	0.2	0.2	0.2	94	-0.7	2	6	45	0.0	994.9	108	0.000	0.6
20091224 12:10	0.2	0.2	0.2	94	-0.6	3	6	45	0.0	994.9	68	0.000	0.2
20091224 12:15	0.3	0.3	0.3	94	-0.6	3	6	135	0.0	994.7	68	0.000	0.0
20091224 12:20	0.3	0.3	0.3	94	-0.5	3	8	135	0.0	994.8	75	0.000	0.0
20091224 12:25	0.4	0.4	0.4	94	-0.5	2	6	135	0.0	994.7	82	0.000	0.0
20091224 12:30	0.6	0.6	0.6	94	-0.3	2	6	135	0.0	994.9	78	0.000	0.0
20091224 12:35	0.6	0.6	0.6	94	-0.3	2	6	158	0.0	994.9	81	0.000	0.0
20091224 12:40	0.7	0.7	0.7	94	-0.2	0	0	-100000	0.0	995.0	125	0.000	0.0
20091224 12:45	0.7	0.7	0.7	94	-0.1	0	2	158	0.0	994.9	157	0.000	0.5
20091224 12:50	0.8	0.8	0.8	94	-0.1	0	5	158	0.0	994.8	111	0.000	0.5
20091224 12:55	0.8	0.8	0.8	94	-0.0	2	5	158	0.0	994.7	166	0.000	0.5
20091224 13:00	0.9	0.9	0.9	94	0.1	2	5	202	0.0	994.6	78	0.025	0.2
20091224 13:05	0.9	0.9	0.9	94	0.1	0	5	202	0.0	994.8	55	0.000	0.0
20091224 13:10	0.9	0.9	0.9	94	0.0	2	8	202	0.0	994.5	84	0.000	0.0
20091224 13:15	0.8	0.8	0.8	94	-0.1	3	8	22	0.0	994.8	83	0.000	0.2
20091224 13:20	0.7	0.7	0.7	94	-0.1	3	6	0	0.0	994.8	88	0.000	0.0
20091224 13:25	0.7	0.7	0.7	94	-0.2	2	5	0	0.0	994.9	108	0.000	0.0
20091224 13:30	0.7	0.7	0.7	94	-0.1	0	0	-100000	0.0	994.7	92	0.000	0.0
20091224 13:35	0.8	0.8	0.8	94	-0.1	0	5	0	0.0	994.5	105	0.000	0.0
20091224 13:40	0.8	0.8	0.8	94	-0.0	2	5	0	0.0	994.5	98	0.000	0.0
20091224 13:45	0.9	0.9	0.9	94	0.0	2	6	0	0.0	994.7	75	0.000	0.0
20091224 13:50	1.0	1.0	1.0	94	0.1	0	2	0	0.0	994.7	77	0.000	0.0
20091224 13:55	0.9	0.9	0.9	93	-0.1	2	6	0	0.0	994.6	77	0.000	0.0
20091224 14:00	0.9	0.9	0.9	93	-0.1	3	6	0	0.0	994.6	82	0.025	0.0
20091224 14:05	0.9	0.9	0.9	93	-0.1	3	6	0	0.0	994.7	81	0.000	0.0
20091224 14:10	0.8	0.8	0.8	93	-0.2	3	5	0	0.0	994.6	83	0.000	0.0
20091224 14:15	0.9	0.9	0.9	93	-0.1	3	6	0	0.0	994.7	85	0.000	0.0
20091224 14:20	0.9	0.9	0.9	93	-0.1	2	5	0	0.0	994.4	113	0.000	0.0
20091224 14:25	0.9	0.9	0.9	93	-0.1	3	5	0	0.0	994.2	131	0.000	0.0
20091224 14:30	0.9	0.9	0.9	93	-0.1	3	5	22	0.0	994.1	147	0.000	0.0
20091224 14:35	0.9	0.9	0.9	93	-0.1	5	8	22	0.0	994.1	131	0.000	0.0
20091224 14:40	0.9	0.9	0.9	93	-0.1	2	5	22	0.0	994.1	112	0.000	0.0
20091224 14:45	0.9	0.9	0.9	93	-0.1	2	5	22	0.0	994.0	91	0.000	0.0
20091224 14:50	0.9	0.9	0.9	93	-0.1	0	3	22	0.0	993.9	59	0.000	0.0
20091224 14:55	0.9	0.9	0.9	93	-0.1	2	5	22	0.0	994.0	48	0.000	0.0
20091224 15:00	0.8	0.8	0.8	93	-0.2	2	5	22	0.0	993.9	46	0.025	0.0
20091224 15:05	0.9	0.9	0.9	93	-0.1	3	6	22	0.0	993.7	46	0.000	0.0
20091224 15:10	0.9	0.9	0.9	93	-0.1	5	8	68	0.0	993.8	46	0.000	0.0
20091224 15:15	0.9	0.9	0.9	93	-0.1	2	6	112	0.0	993.8	45	0.000	0.0
20091224 15:20	0.9	0.9	0.9	93	-0.1	0	3	112	0.0	993.9	43	0.000	0.0
20091224 15:25	0.9	0.9	0.9	93	-0.1	2	3	112	0.0	993.8	40	0.000	0.0
20091224 15:30	0.9	0.9	0.9	93	-0.1	2	6	202	0.0	993.7	33	0.000	0.0
20091224 15:35	0.9	0.9	0.9	93	-0.1	2	3	202	0.0	993.6	31	0.000	0.0
20091224 15:40	0.9	0.9	0.9	93	-0.1	2	5	202	0.0	993.6	26	0.000	0.0
20091224 15:45	0.9	0.9	0.9	92	-0.3	2	5	202	0.0	993.7	21	0.000	0.0
20091224 15:50	0.8	0.8	0.8	92	-0.3	2	3	202	0.0	993.8	18	0.000	0.0
20091224 15:55	0.7	0.7	0.7	92	-0.4	2	5	202	0.0	994.0	14	0.000	0.0
20091224 16:00	0.6	0.6	0.6	92	-0.5	2	5	202	0.0	994.0	10	0.000	0.0
20091224 16:05	0.6	0.6	0.6	93	-0.4	0	5	202	0.0	993.8	6	0.000	0.0
20091224 16:10	0.6	0.6	0.6	93	-0.4	0	2	202	0.0	993.7	3	0.000	0.0
20091224 16:15	0.6	0.6	0.6	93	-0.4	0	0	-100000	0.0	993.6	0	0.000	0.0
20091224 16:20	0.5	0.5	0.5	93	-0.5	0	0	-100000	0.0	993.5	0	0.000	0.0
20091224 16:25	0.4	0.4	0.4	93	-0.6	0	2	202	0.0	993.5	0	0.000	0.0
20091224 16:30	0.4	0.4	0.4	93	-0.6	0	0	-100000	0.0	993.5	0	0.000	0.0
20091224 16:35	0.5	0.5	0.5	93	-0.5	0	2	202	0.0	993.3	0	0.000	0.0
20091224 16:40	0.4	0.4	0.4	93	-0.6	0	0	-100000	0.0	993.3	0	0.000	0.0
20091224 16:45	0.4	0.4	0.4	93	-0.6	0	2	202	0.0	993.2	0	0.000	0.0
20091224 16:50	0.5	0.5	0.5	93	-0.5	0	3	202	0.0	993.1	0	0.000	0.0
20091224 16:55	0.4	0.4	0.4	93	-0.6	0	3	202	0.0	993.0	0	0.000	0.0
20091224 17:00	0.4	0.4	0.4	93	-0.6	0	3	202	0.0	992.7	0	0.000	0.0
20091224 17:05	0.4	0.4	0.4	93	-0.6	0	0	-100000	0.0	992.7	0	0.000	0.0
20091224 17:10	0.3	0.3	0.3	92	-0.8	2	3	202	0.0	992.5	0	0.000	0.0
20091224 17:15	0.3	0.3	0.3	93	-0.7	0	3	202	0.0	992.6	0	0.000	0.0
20091224 17:20	0.3	0.3	0.3	93	-0.7	0	3	202	0.0	992.6	0	0.000	0.0
20091224 17:25	0.3	0.3	0.3	93	-0.7	2	3	202	0.0	992.6	0	0.000	0.0
20091224 17:30	0.3	0.3	0.3	93	-0.7	2	3	202	0.0	992.5	0	0.000	0.0
20091224 17:35	0.3	0.3	0.3	93	-0.7	0	0	-100000	0.0	992.4	0	0.000	0.0
20091224 17:40	0.3	0.3	0.3	93	-0.7	2	3	202	0.0	992.4	0	0.000	0.0
20091224 17:45	0.3	0.3	0.3	93	-0.7	2	5	202	0.0	992.1	0	0.000	0.0
20091224 17:50	0.3	0.3	0.3	93	-0.7	0	3	202	0.0	992.0	0	0.000	0.0
20091224 17:55	0.3	0.3	0.3	93	-0.7	2	5	202	0.0	991.8	0	0.000	0.0
20091224 18:00	0.3	0.3	0.3	93	-0.7	0	3	202	0.0	991.6	0	0.000	0.0
20091224 18:05	0.3	0.3	0.3	93	-0.7	0	0	-100000	0.0	991.7	0	0.000	0.0
20091224 18:10	0.4	0.4	0.4	93	-0.6	0	3	202	0.0	991.5	0	0.000	0.0
20091224 18:15	0.4	0.4	0.4	93	-0.6	0	0	-100000	0.0	991.5	0	0.000	0.0
20091224 18:20	0.4	0.4	0.4	93	-0.6	0	3	202	0.0	991.5	0	0.000	0.0
20091224 18:25	0.5	0.5	0.5	93	-0.5	2	3	202	0.0	991.5	0	0.000	0.0
20091224 18:30	0.5	0.5	0.5	93	-0.5	3	6	202	0.0	991.2	0	0.000	0.0
20091224 18:35	0.6	0.6	0.6	93	-0.4	2	6	202	0.0	991.3	0	0.000	0.0
20091224 18:40	0.6	0.6	0.6	93	-0.4	0	0	-100000	0.0	991.2	0	0.000	0.0
20091224 18:45	0.6	0.6	0.6	93	-0.4	0	0	-100000	0.0	991.3	0	0.000	0.0
20091224 18:50	0.7	0.7	0.7	93	-0.3	0	3	202	0.0	991.2	0	0.000	0.0
20091224 18:55	0.8	0.8	0.8	93	-0.2	2	5	202	0.0	991.1	0	0.000	0.0
20091224 19:00	0.8	0.8	0.8	93	-0.2	0	3	202	0.0	991.0	0	0.000	0.0
20091224 19:05	0.8	0.8	0.8	93	-0.2	3	6	202	0.0	990.8	0	0.000	0.0
20091224 19:10	0.8	0.8	0.8	92	-0.4	2	6	202	0.0	990.6	0	0.000	0.0
20091224 19:15	0.8	0.8	0.8	92	-0.4	3	6	202	0.0	990.8	0	0.000	0.0
20091224 19:20	0.8	0.8	0.8	92	-0.4	3	6	202	0.0	990.5	0	0.000	0.0
20091224 19:25	0.8	0.8	0.8	92	-0.4	3	5	202	0.0	990.4	0	0.000	0.0
20091224 19:30	0.8	0.8	0.8	92	-0.4	3	6	202	0.0	990.3	0	0.000	0.0
20091224 19:35	0.7	0.7	0.7	92	-0.4	5	10	270	0.0	989.9	0	0.000	0.0
20091224 19:40	0.7	0.7	0.7	93	-0.3	5	10	45	0.0	989.7	0	0.000	0.0
20091224 19:45	0.7	0.7	0.7	93	-0.3	3	8	45	0.0	990.1	0	0.000	0.0
20091224 19:50	0.7	0.7	0.7	93	-0.3	2	5	292	0.0	989.7	0	0.000	0.0
20091224 19:55	0.8	0.8	0.8	93	-0.2	2	5	292	0.0	989.4	0	0.000	0.0
20091224 20:00	0.8	0.8	0.8	93	-0.2	2	5	292	0.0	989.3	0	0.000	0.0
20091224 20:05	0.8	0.8	0.8	93	-0.2	0	0	-100000	0.0	989.4	0	0.000	0.0
20091224 20:10	0.8	0.8	0.8	93	-0.2	0	5	292	0.0	989.1	0	0.000	0.0
20091224 20:15	0.9	0.9	0.9	93	-0.1	3	6	292	0.0	989.0	0	0.000	0.0
20091224 20:20	1.1	1.1	1.1	93	0.1	2	5	292	0.0	989.0	0	0.000	0.0
20091224 20:25	1.1	1.1	1.1	93	0.1	2	5	292	0.0	988.9	0	0.000	0.0
20091224 20:30	1.1	1.1	1.1	93	0.1	3	8	292	0.0	988.5	0	0.000	0.0
20091224 20:35	1.1	1.1	1.1	93	0.1	3	10	68	0.0	988.6	0	0.000	0.0
20091224 20:40	1.1	1.1	1.1	93	0.1	2	5	68	0.0	988.5	0	0.000	0.0
20091224 20:45	1.2	1.2	1.2	92	0.0	2	5	68	0.0	988.2	0	0.000	0.0
20091224 20:50	1.2	1.2	1.2	92	0.0	3	5	68	0.0	988.1	0	0.000	0.0
20091224 20:55	1.2	1.2	1.2	92	0.0	3	10	135	0.0	987.8	0	0.000	0.0
20091224 21:00	1.3	1.3	1.3	93	0.3	3	8	112	0.0	987.7	0	0.000	0.0
20091224 21:05	1.4	1.4	1.4	93	0.4	3	6	112	0.0	987.7	0	0.000	0.0
20091224 21:10	1.7	1.7	1.7	93	0.7	5	10	135	0.0	987.4	0	0.000	0.0
20091224 21:15	1.8	1.8	1.8	93	0.8	5	10	135	0.0	987.4	0	0.000	0.0
20091224 21:20	1.9	1.9	1.9	93	0.9	2	5	135	0.0	987.3	0	0.000	0.0
20091224 21:25	2.1	2.1	2.1	92	0.9	2	6	112	0.0	987.1	0	0.000	0.0
20091224 21:30	2.2	2.2	2.2	92	1.0	3	6	112	0.0	986.9	0	0.000	0.0
20091224 21:35	2.3	2.3	2.3	92	1.1	2	6	135	0.0	986.7	0	0.000	0.0
20091224 21:40	2.3	2.3	2.3	92	1.1	3	6	112	0.0	986.6	0	0.000	0.0
20091224 21:45	2.3	2.3	2.3	92	1.2	2	5	135	0.0	986.4	0	0.000	0.0
20091224 21:50	2.4	2.4	2.4	92	1.2	2	5	135	0.0	986.2	0	0.000	0.0
20091224 21:55	2.4	2.4	2.4	91	1.1	3	6	135	0.0	986.1	0	0.000	0.0
20091224 22:00	2.4	2.4	2.4	91	1.1	0	3	135	0.0	986.3	0	0.000	0.0
20091224 22:05	2.5	2.5	2.5	91	1.2	5	11	112	0.0	985.9	0	0.000	0.0
20091224 22:10	2.6	2.6	2.6	91	1.3	2	5	112	0.0	985.8	0	0.000	0.0
20091224 22:15	2.6	2.6	2.6	91	1.3	3	5	112	0.0	985.9	0	0.000	0.0
20091224 22:20	2.7	2.7	2.7	91	1.3	2	5	112	0.0	985.9	0	0.000	0.0
20091224 22:25	2.7	2.7	2.7	91	1.4	0	3	112	0.0	985.9	0	0.000	0.0
20091224 22:30	2.8	2.8	2.8	90	1.3	0	3	112	0.0	985.7	0	0.000	0.0
20091224 22:35	2.8	2.8	2.8	90	1.3	0	2	112	0.0	985.6	0	0.000	0.0
20091224 22:40	2.8	2.8	2.8	90	1.3	0	5	112	0.0	985.7	0	0.000	0.0
20091224 22:45	2.8	2.8	2.8	90	1.4	2	5	135	0.0	985.8	0	0.000	0.0
20091224 22:50	2.9	2.9	2.9	90	1.5	3	6	135	0.0	985.8	0	0.000	0.0
20091224 22:55	3.0	3.0	3.0	89	1.4	2	8	135	0.0	985.8	0	0.000	0.0
20091224 23:00	2.9	2.9	2.9	89	1.3	0	3	135	0.0	985.7	0	0.000	0.0
20091224 23:05	2.9	2.9	2.9	89	1.3	0	3	135	0.0	985.8	0	0.000	0.0
20091224 23:10	2.8	2.8	2.8	89	1.2	3	6	135	0.0	985.7	0	0.000	0.0
20091224 23:15	2.7	2.7	2.7	89	1.0	3	6	135	0.0	985.8	0	0.000	0.0
20091224 23:20	2.5	2.5	2.5	89	0.9	3	6	135	0.0	985.6	0	0.000	0.0
20091224 23:25	2.4	2.4	2.4	89	0.8	0	3	135	0.0	985.7	0	0.000	0.0
20091224 23:30	2.3	2.3	2.3	89	0.7	0	3	135	0.0	985.7	0	0.000	0.0
20091224 23:35	2.3	2.3	2.3	90	0.9	2	3	135	0.0	985.6	0	0.000	0.0
20091224 23:40	2.2	2.2	2.2	89	0.6	0	3	135	0.0	985.6	0	0.000	0.0
20091224 23:45	2.2	2.2	2.2	90	0.7	2	5	135	0.0	985.1	0	0.000	0.0
20091224 23:50	2.2	2.2	2.2	90	0.7	3	6	135	0.0	985.1	0	0.000	0.0
20091224 23:55	2.2	2.2	2.2	90	0.8	5	8	135	0.0	984.5	0	0.000	0.0



Please note the license to use and transfer of this data:
http://creativecommons.org/licenses/by-nc-sa/3.0/deed.en

Bitte beachten sie die Lizenz zur Verwertung und Weitergabe der Daten:
http://creativecommons.org/licenses/by-nc-sa/3.0/deed.de

zurück zur Übersicht der Archivdaten (Monats und Tagesdaten)

Cookies helfen bei der Bereitstellung von Inhalten. Durch die Nutzung dieser Seiten erklärst du dich damit einverstanden, dass Cookies auf deinem Rechner gespeichert werden. Weitere Information